Time;durP1;ratioP1;P1;durP2;ratioP2;P2;SDS_P1;SDS_P2;PMS_P1;PMS_P2;Temp;Humidity;BMP_temperature;BMP_pressure;BME280_temperature;BME280_humidity;BME280_pressure;Samples;Min_cycle;Max_cycle;Signal;HPM_P1;HPM_P2
2021/12/06 00:02:11;;;;;;;8.75;5.82;;;4.10;99.90;;;;;;5038466;28;20033;-65
2021/12/06 00:04:37;;;;;;;10.27;5.90;;;4.10;99.90;;;;;;5056101;28;20036;-65
2021/12/06 00:07:06;;;;;;;;;;;4.10;99.90;;;;;;5056331;28;20504;-65
2021/12/06 00:09:31;;;;;;;9.35;5.97;;;4.10;99.90;;;;;;5055898;28;19908;-65
2021/12/06 00:12:01;;;;;;;6.80;5.60;;;4.10;99.90;;;;;;5038031;28;20162;-64
2021/12/06 00:14:35;;;;;;;9.10;5.88;;;4.10;99.90;;;;;;5055794;28;20045;-65
2021/12/06 00:17:05;;;;;;;10.20;5.93;;;4.10;99.90;;;;;;5054564;28;20112;-65
2021/12/06 00:19:32;;;;;;;9.45;5.90;;;4.10;99.90;;;;;;5055870;28;20154;-66
2021/12/06 00:21:59;;;;;;;9.27;5.55;;;4.10;99.90;;;;;;5055658;28;20112;-65
2021/12/06 00:24:25;;;;;;;9.18;5.75;;;4.10;99.90;;;;;;5055416;28;20041;-66
2021/12/06 00:26:51;;;;;;;10.77;5.80;;;4.10;99.90;;;;;;5037634;28;20031;-65
2021/12/06 00:29:18;;;;;;;9.43;5.97;;;4.00;99.90;;;;;;5037528;28;20025;-65
2021/12/06 00:31:44;;;;;;;10.38;5.15;;;4.00;99.90;;;;;;5055393;28;20021;-64
2021/12/06 00:34:14;;;;;;;9.75;6.22;;;3.90;99.90;;;;;;5055799;28;20096;-63
2021/12/06 00:36:50;;;;;;;8.63;5.55;;;3.80;99.90;;;;;;5055697;28;20047;-64
2021/12/06 00:39:16;;;;;;;11.25;6.60;;;3.80;99.90;;;;;;5055550;28;20024;-64
2021/12/06 00:41:42;;;;;;;11.07;6.57;;;3.60;99.90;;;;;;5055196;28;20466;-64
2021/12/06 00:44:08;;;;;;;9.52;6.53;;;3.50;99.90;;;;;;5055292;28;20033;-63
2021/12/06 00:46:37;;;;;;;11.52;7.10;;;3.50;99.90;;;;;;5055232;28;20272;-65
2021/12/06 00:49:03;;;;;;;11.68;7.55;;;3.50;99.90;;;;;;5055124;28;20159;-65
2021/12/06 00:51:29;;;;;;;11.70;7.30;;;3.50;99.90;;;;;;5055790;28;20067;-64
2021/12/06 00:53:55;;;;;;;15.07;7.60;;;3.50;99.90;;;;;;5037191;28;20053;-64
2021/12/06 00:56:20;;;;;;;12.57;7.53;;;3.50;99.90;;;;;;5056495;28;20021;-64
2021/12/06 00:58:46;;;;;;;11.93;7.87;;;3.50;99.90;;;;;;5057278;28;20024;-65
2021/12/06 01:01:12;;;;;;;13.57;8.23;;;3.40;99.90;;;;;;5055140;28;20351;-64
2021/12/06 01:03:40;;;;;;;14.15;8.10;;;3.40;99.90;;;;;;5055015;28;20025;-64
2021/12/06 01:06:07;;;;;;;13.13;7.82;;;3.40;99.90;;;;;;5055024;28;20047;-64
2021/12/06 01:08:33;;;;;;;12.48;6.80;;;3.50;99.90;;;;;;5054469;28;20079;-64
2021/12/06 01:11:00;;;;;;;11.23;7.13;;;3.50;99.90;;;;;;5054664;28;20026;-65
2021/12/06 01:13:27;;;;;;;14.80;8.07;;;3.50;99.90;;;;;;5054531;28;20024;-64
2021/12/06 01:15:54;;;;;;;13.00;8.13;;;3.50;99.90;;;;;;5036620;28;20112;-64
2021/12/06 01:18:20;;;;;;;14.55;8.38;;;3.50;99.90;;;;;;5054477;28;20108;-64
2021/12/06 01:20:54;;;;;;;15.27;8.40;;;3.50;99.90;;;;;;5054433;28;20462;-64
2021/12/06 01:23:25;;;;;;;14.25;7.93;;;3.50;99.90;;;;;;5055110;28;20103;-64
2021/12/06 01:26:13;;;;;;;16.15;7.38;;;3.50;99.90;;;;;;5054543;28;20021;-63
2021/12/06 01:39:08;;;;;;;13.10;8.27;;;3.60;99.90;;;;;;5054816;28;20028;-65
2021/12/06 01:39:37;;;;;;;12.10;7.93;;;3.60;99.90;;;;;;5054338;28;20497;-65
2021/12/06 01:42:05;;;;;;;14.60;8.40;;;3.60;99.90;;;;;;5054124;28;20029;-65
2021/12/06 01:44:41;;;;;;;15.63;8.35;;;3.60;99.90;;;;;;5054153;28;20500;-66
2021/12/06 01:47:14;;;;;;;15.13;9.05;;;3.60;99.90;;;;;;5053892;28;20064;-64
2021/12/06 01:49:45;;;;;;;15.55;8.55;;;3.60;99.90;;;;;;5035833;28;20033;-64
2021/12/06 01:52:18;;;;;;;17.83;9.55;;;3.60;99.90;;;;;;5054462;28;20031;-63
2021/12/06 01:54:44;;;;;;;13.55;8.70;;;3.60;99.90;;;;;;5035980;28;20512;-63
2021/12/06 01:57:11;;;;;;;16.83;9.10;;;3.60;99.90;;;;;;5054060;28;20474;-63
2021/12/06 01:59:37;;;;;;;18.63;10.13;;;3.60;99.90;;;;;;5053715;28;20029;-63
2021/12/06 02:02:03;;;;;;;12.35;9.00;;;3.60;99.90;;;;;;5053875;28;20032;-63
2021/12/06 02:04:30;;;;;;;;;;;3.70;99.90;;;;;;5054519;28;20366;-63
2021/12/06 02:07:00;;;;;;;13.98;8.85;;;3.60;99.90;;;;;;5055437;28;20300;-63
2021/12/06 02:09:27;;;;;;;15.13;9.00;;;3.70;99.90;;;;;;5055619;28;20025;-64
2021/12/06 02:11:56;;;;;;;13.27;8.38;;;3.70;99.90;;;;;;5055652;28;20105;-64
2021/12/06 02:15:07;;;;;;;17.17;9.15;;;3.70;99.90;;;;;;5053392;28;20013;-64
2021/12/06 02:17:17;;;;;;;13.52;8.20;;;3.80;99.90;;;;;;5040177;28;20033;-64
2021/12/06 02:19:53;;;;;;;13.23;7.97;;;4.30;99.90;;;;;;5053262;28;20075;-65
2021/12/06 02:22:23;;;;;;;15.02;8.63;;;4.40;99.90;;;;;;5053509;28;20017;-64
2021/12/06 02:24:52;;;;;;;13.80;8.82;;;4.40;99.90;;;;;;5053959;28;20036;-65
2021/12/06 02:27:18;;;;;;;14.48;9.10;;;4.20;99.90;;;;;;5053748;28;20437;-64
2021/12/06 02:29:46;;;;;;;13.52;9.13;;;4.10;99.90;;;;;;5053124;28;20028;-62
2021/12/06 02:32:14;;;;;;;16.30;8.57;;;4.00;99.90;;;;;;5053170;28;20424;-65
2021/12/06 02:34:44;;;;;;;13.30;8.85;;;3.90;99.90;;;;;;5053172;28;20382;-64
2021/12/06 02:37:11;;;;;;;11.05;8.13;;;3.90;99.90;;;;;;5053692;28;20017;-64
2021/12/06 02:39:38;;;;;;;9.45;7.53;;;3.90;99.90;;;;;;5053017;28;20021;-64
2021/12/06 02:42:07;;;;;;;12.02;8.07;;;3.90;99.90;;;;;;5052795;28;20496;-63
2021/12/06 02:44:32;;;;;;;12.82;8.00;;;3.90;99.90;;;;;;5053120;28;20504;-63
2021/12/06 02:46:58;;;;;;;12.40;8.20;;;3.80;99.90;;;;;;5053146;28;20029;-63
2021/12/06 02:49:24;;;;;;;14.40;8.80;;;3.70;99.90;;;;;;5053467;28;20580;-62
2021/12/06 02:51:51;;;;;;;13.82;8.88;;;3.70;99.90;;;;;;5053084;28;20033;-63
2021/12/06 02:54:19;;;;;;;;;;;3.70;99.90;;;;;;5053945;28;20079;-64
2021/12/06 02:59:30;;;;;;;13.57;7.90;;;3.70;99.90;;;;;;5053614;28;20060;-64
2021/12/06 03:02:03;;;;;;;11.97;8.23;;;3.80;99.90;;;;;;5053178;28;20424;-63
2021/12/06 03:04:29;;;;;;;11.32;7.93;;;4.10;99.90;;;;;;5053352;28;20032;-63
2021/12/06 03:06:55;;;;;;;11.30;7.20;;;4.00;99.90;;;;;;5053195;28;20397;-63
2021/12/06 03:09:27;;;;;;;15.07;8.15;;;3.80;99.90;;;;;;5054588;28;20031;-63
2021/12/06 03:12:04;;;;;;;11.63;8.07;;;3.70;99.90;;;;;;5055371;28;20021;-63
2021/12/06 03:14:32;;;;;;;;;;;3.60;99.90;;;;;;5055502;28;20072;-64
2021/12/06 03:17:01;;;;;;;12.40;7.72;;;3.50;99.90;;;;;;5055081;28;19905;-62
2021/12/06 03:19:27;;;;;;;12.93;8.02;;;3.40;99.90;;;;;;5055142;28;20025;-64
2021/12/06 03:21:53;;;;;;;14.40;8.52;;;3.50;99.90;;;;;;5054643;28;20025;-64
2021/12/06 03:24:19;;;;;;;13.13;7.10;;;3.70;99.90;;;;;;5054981;28;20021;-64
2021/12/06 03:26:46;;;;;;;12.30;8.45;;;4.00;99.90;;;;;;5055423;28;20035;-63
2021/12/06 03:29:12;;;;;;;15.95;8.38;;;4.00;99.90;;;;;;5037041;28;20101;-64
2021/12/06 03:31:38;;;;;;;13.32;8.05;;;3.70;99.90;;;;;;5054646;28;20029;-64
2021/12/06 03:34:05;;;;;;;12.50;7.93;;;3.60;99.90;;;;;;5053220;28;20108;-63
2021/12/06 03:36:35;;;;;;;13.52;7.97;;;3.50;99.90;;;;;;5052401;28;20053;-62
2021/12/06 03:39:04;;;;;;;12.07;7.50;;;3.70;99.90;;;;;;5052447;28;20109;-64
2021/12/06 03:41:30;;;;;;;13.48;7.75;;;4.00;99.90;;;;;;5052488;28;20044;-64
2021/12/06 03:43:58;;;;;;;12.90;7.93;;;4.10;99.90;;;;;;5053014;28;20453;-63
2021/12/06 03:46:25;;;;;;;14.52;8.38;;;3.90;99.90;;;;;;5052535;28;20370;-64
2021/12/06 03:48:51;;;;;;;16.60;7.97;;;3.70;99.90;;;;;;5052360;28;20064;-64
2021/12/06 03:51:17;;;;;;;10.45;7.25;;;3.60;99.90;;;;;;5052645;28;20033;-64
2021/12/06 03:53:43;;;;;;;10.95;7.55;;;3.60;99.90;;;;;;5056010;28;20501;-64
2021/12/06 03:56:09;;;;;;;12.63;7.80;;;3.70;99.90;;;;;;5056147;28;20036;-64
2021/12/06 03:58:35;;;;;;;11.40;7.38;;;3.80;99.90;;;;;;5056080;28;20024;-64
2021/12/06 04:01:03;;;;;;;11.35;7.95;;;3.80;99.90;;;;;;5056376;28;20159;-64
2021/12/06 04:03:31;;;;;;;13.10;8.70;;;4.00;99.90;;;;;;5056466;28;20017;-64
2021/12/06 04:05:57;;;;;;;10.88;7.50;;;4.10;99.90;;;;;;5056019;28;20036;-64
2021/12/06 04:08:23;;;;;;;9.82;6.45;;;4.20;99.90;;;;;;5055670;28;20021;-64
2021/12/06 04:10:49;;;;;;;12.50;6.97;;;4.30;99.90;;;;;;5038283;28;20135;-64
2021/12/06 04:13:16;;;;;;;12.00;7.00;;;4.20;99.90;;;;;;5055704;28;20061;-64
2021/12/06 04:15:44;;;;;;;10.35;6.70;;;4.10;99.90;;;;;;5055715;28;20385;-64
2021/12/06 04:18:10;;;;;;;11.68;8.23;;;4.10;99.90;;;;;;5055533;28;20028;-64
2021/12/06 04:20:36;;;;;;;13.53;7.73;;;3.80;99.90;;;;;;5055387;28;20032;-64
2021/12/06 04:23:03;;;;;;;19.42;9.35;;;3.80;99.90;;;;;;5055843;28;20291;-62
2021/12/06 04:25:29;;;;;;;15.05;8.23;;;3.70;99.90;;;;;;5055682;28;20433;-64
2021/12/06 04:27:56;;;;;;;15.38;8.45;;;3.80;99.90;;;;;;5055780;28;20025;-63
2021/12/06 04:30:24;;;;;;;16.08;8.98;;;3.80;99.90;;;;;;5055326;28;20025;-64
2021/12/06 04:32:52;;;;;;;17.33;9.38;;;3.70;99.90;;;;;;5055574;28;20059;-64
2021/12/06 04:35:18;;;;;;;24.23;9.77;;;3.60;99.90;;;;;;5055473;28;20378;-64
2021/12/06 04:37:44;;;;;;;22.87;11.20;;;3.40;99.90;;;;;;5055334;28;20021;-64
2021/12/06 04:40:10;;;;;;;20.95;10.68;;;3.40;99.90;;;;;;5055620;28;20025;-65
2021/12/06 04:42:36;;;;;;;22.05;9.95;;;3.40;99.90;;;;;;5037383;28;20111;-64
2021/12/06 04:45:02;;;;;;;26.13;11.47;;;3.40;99.90;;;;;;5055564;28;20057;-67
2021/12/06 04:47:28;;;;;;;27.63;10.73;;;3.30;99.90;;;;;;5055205;28;20029;-65
2021/12/06 04:49:54;;;;;;;29.63;12.17;;;3.30;99.90;;;;;;5054988;28;20123;-65
2021/12/06 04:52:20;;;;;;;27.93;11.07;;;3.40;99.90;;;;;;5055388;28;20075;-64
2021/12/06 04:54:50;;;;;;;25.75;10.30;;;3.40;99.90;;;;;;5055266;28;20075;-64
2021/12/06 04:57:25;;;;;;;26.58;10.63;;;3.30;99.90;;;;;;5055927;28;20032;-66
2021/12/06 05:00:00;;;;;;;27.65;11.00;;;3.50;99.90;;;;;;5054920;28;20440;-64
2021/12/06 05:02:33;;;;;;;21.55;10.07;;;3.50;99.90;;;;;;5055029;28;20104;-64
2021/12/06 05:05:10;;;;;;;27.73;10.38;;;3.70;99.90;;;;;;5054711;28;20078;-64
2021/12/06 05:07:45;;;;;;;24.30;10.75;;;3.70;99.90;;;;;;5055240;28;20482;-64
2021/12/06 05:10:13;;;;;;;21.65;9.13;;;3.70;99.90;;;;;;5054921;28;20392;-64
2021/12/06 05:12:40;;;;;;;25.70;9.90;;;3.60;99.90;;;;;;5054889;28;20096;-64
2021/12/06 05:15:06;;;;;;;23.70;11.10;;;3.40;99.90;;;;;;5054883;28;20028;-64
2021/12/06 05:17:32;;;;;;;;;;;3.40;99.90;;;;;;5056121;28;20025;-63
2021/12/06 05:19:58;;;;;;;25.73;10.05;;;3.40;99.90;;;;;;5056998;28;20437;-65
2021/12/06 05:22:24;;;;;;;21.75;9.90;;;3.50;99.90;;;;;;5057193;28;20053;-64
2021/12/06 05:24:51;;;;;;;24.38;9.82;;;3.60;99.90;;;;;;5057330;28;20085;-64
2021/12/06 05:27:23;;;;;;;25.17;10.23;;;3.60;99.90;;;;;;5057750;28;20112;-63
2021/12/06 05:29:52;;;;;;;24.38;10.18;;;3.60;99.90;;;;;;5056970;28;20480;-63
2021/12/06 05:32:18;;;;;;;23.63;10.45;;;3.50;99.90;;;;;;5057029;28;20017;-64
2021/12/06 05:34:46;;;;;;;25.85;10.70;;;3.70;99.90;;;;;;5056902;28;20017;-66
2021/12/06 05:37:14;;;;;;;26.52;10.65;;;3.70;99.90;;;;;;5055912;28;20185;-66
2021/12/06 05:39:40;;;;;;;34.90;11.52;;;3.50;99.90;;;;;;5054347;28;20484;-65
2021/12/06 05:42:09;;;;;;;31.42;12.55;;;3.50;99.90;;;;;;5054776;28;20037;-65
2021/12/06 05:44:35;;;;;;;37.83;12.10;;;3.50;99.90;;;;;;5054441;28;20487;-66
2021/12/06 05:47:01;;;;;;;33.30;12.35;;;3.70;99.90;;;;;;5053941;28;20049;-66
2021/12/06 05:49:28;;;;;;;41.33;12.52;;;3.60;99.90;;;;;;5053560;28;20021;-65
2021/12/06 05:51:53;;;;;;;34.05;12.98;;;3.50;99.90;;;;;;5053545;28;20486;-65
2021/12/06 05:54:19;;;;;;;34.17;13.38;;;3.60;99.90;;;;;;5053813;28;20071;-65
2021/12/06 05:56:46;;;;;;;29.13;12.20;;;3.50;99.90;;;;;;5053844;28;20017;-65
2021/12/06 05:59:12;;;;;;;;;;;3.60;99.90;;;;;;5036082;28;20024;-65
2021/12/06 06:01:38;;;;;;;29.52;10.02;;;3.60;99.90;;;;;;5053665;28;19943;-65
2021/12/06 06:04:05;;;;;;;28.63;10.93;;;3.70;99.90;;;;;;5053751;28;20057;-65
2021/12/06 06:06:33;;;;;;;30.88;11.70;;;3.70;99.90;;;;;;5053591;28;20271;-66
2021/12/06 06:08:59;;;;;;;32.33;11.63;;;3.80;99.90;;;;;;5053383;28;20033;-65
2021/12/06 06:11:26;;;;;;;;;;;3.80;99.90;;;;;;5054024;28;20044;-66
2021/12/06 06:13:52;;;;;;;34.40;10.70;;;3.60;99.90;;;;;;5053435;28;19912;-66
2021/12/06 06:16:20;;;;;;;;;;;3.50;99.90;;;;;;5035001;28;20071;-65
2021/12/06 06:18:48;;;;;;;37.22;11.10;;;3.60;99.90;;;;;;5035608;28;19920;-65
2021/12/06 06:21:14;;;;;;;35.85;11.35;;;3.50;99.90;;;;;;5035843;28;20056;-65
2021/12/06 06:23:40;;;;;;;32.25;10.90;;;3.40;99.90;;;;;;5053283;28;20021;-65
2021/12/06 06:26:06;;;;;;;38.90;12.73;;;3.30;99.90;;;;;;5053138;28;20055;-65
2021/12/06 06:28:31;;;;;;;39.67;12.55;;;3.20;99.90;;;;;;5053018;28;20027;-65
2021/12/06 06:30:57;;;;;;;41.53;12.70;;;3.30;99.90;;;;;;5052982;28;20370;-65
2021/12/06 06:33:24;;;;;;;35.40;11.67;;;3.40;99.90;;;;;;5053180;28;20024;-65
2021/12/06 06:35:50;;;;;;;38.58;11.75;;;3.30;99.90;;;;;;5035738;28;20028;-66
2021/12/06 06:38:17;;;;;;;35.23;10.43;;;3.30;99.90;;;;;;5053396;28;20056;-66
2021/12/06 06:40:43;;;;;;;69.63;19.48;;;3.40;99.90;;;;;;5053003;28;20112;-66
2021/12/06 06:43:09;;;;;;;58.28;12.65;;;3.30;99.90;;;;;;5053314;28;20060;-66
2021/12/06 06:45:35;;;;;;;53.33;12.23;;;3.30;99.90;;;;;;5052861;28;20041;-66
2021/12/06 06:48:00;;;;;;;40.95;12.20;;;3.20;99.90;;;;;;5052400;28;20367;-67
2021/12/06 06:50:26;;;;;;;45.93;13.70;;;3.20;99.90;;;;;;5050579;28;20257;-67
2021/12/06 06:52:53;;;;;;;48.67;14.60;;;3.30;99.90;;;;;;5051467;28;20032;-67
2021/12/06 06:55:20;;;;;;;52.28;15.50;;;3.30;99.90;;;;;;5050588;28;20583;-67
2021/12/06 06:57:46;;;;;;;48.10;14.45;;;3.30;99.90;;;;;;5051158;28;20099;-67
2021/12/06 07:00:37;;;;;;;57.28;21.30;;;3.20;99.90;;;;;;5051640;28;20036;-67
2021/12/06 07:03:04;;;;;;;43.75;12.45;;;3.20;99.90;;;;;;5052718;28;20048;-67
2021/12/06 07:05:30;;;;;;;46.20;12.32;;;3.40;99.90;;;;;;5053906;28;20112;-67
2021/12/06 07:07:57;;;;;;;54.53;15.85;;;3.30;99.90;;;;;;5054419;28;20130;-66
2021/12/06 07:10:23;;;;;;;44.42;14.02;;;3.20;99.90;;;;;;5055030;28;20048;-66
2021/12/06 07:12:53;;;;;;;44.65;14.98;;;3.20;99.90;;;;;;5054182;28;20036;-66
2021/12/06 07:15:24;;;;;;;41.70;12.82;;;3.30;99.90;;;;;;5053497;28;20470;-66
2021/12/06 07:17:51;;;;;;;50.78;15.13;;;3.30;99.90;;;;;;5035023;28;20025;-66
2021/12/06 07:20:17;;;;;;;;;;;3.40;99.90;;;;;;5053069;28;20135;-66
2021/12/06 07:22:44;;;;;;;41.72;14.45;;;3.30;99.90;;;;;;5052521;28;19974;-66
2021/12/06 07:25:11;;;;;;;46.63;18.33;;;3.20;99.90;;;;;;5052639;28;20025;-66
2021/12/06 07:27:37;;;;;;;41.63;14.15;;;3.30;99.90;;;;;;5055229;28;20060;-66
2021/12/06 07:30:05;;;;;;;48.45;15.48;;;3.50;99.90;;;;;;5056756;28;20522;-66
2021/12/06 07:32:30;;;;;;;45.67;14.13;;;3.40;99.90;;;;;;5056805;28;20104;-66
2021/12/06 07:34:56;;;;;;;43.23;13.97;;;3.30;99.90;;;;;;5057125;28;20441;-66
2021/12/06 07:37:22;;;;;;;46.33;13.27;;;3.30;99.90;;;;;;5056472;28;20096;-66
2021/12/06 07:39:47;;;;;;;55.37;14.63;;;3.40;99.90;;;;;;5056010;28;20429;-66
2021/12/06 07:42:13;;;;;;;46.40;13.87;;;3.40;99.90;;;;;;5038384;28;20432;-67
2021/12/06 07:44:43;;;;;;;45.83;14.57;;;3.30;99.90;;;;;;5056058;28;20029;-66
2021/12/06 07:47:12;;;;;;;36.33;11.52;;;3.30;99.90;;;;;;5055799;28;20482;-67
2021/12/06 07:49:38;;;;;;;40.60;11.80;;;3.40;99.90;;;;;;5055755;28;20037;-66
2021/12/06 07:52:04;;;;;;;;;;;3.40;99.90;;;;;;5039154;28;20362;-69
2021/12/06 07:54:31;;;;;;;30.40;10.75;;;3.40;99.90;;;;;;5055844;28;20361;-68
2021/12/06 07:56:57;;;;;;;;;;;3.40;99.90;;;;;;5056294;28;20124;-68
2021/12/06 07:59:22;;;;;;;26.27;9.15;;;3.40;99.90;;;;;;5055813;28;19981;-68
2021/12/06 08:01:48;;;;;;;22.17;9.07;;;3.40;99.90;;;;;;5056057;28;20354;-68
2021/12/06 08:04:14;;;;;;;24.70;9.50;;;3.30;99.90;;;;;;5056270;28;20047;-68
2021/12/06 08:06:40;;;;;;;27.85;9.07;;;3.20;99.90;;;;;;5038018;28;20489;-68
2021/12/06 08:09:07;;;;;;;24.50;8.20;;;3.20;99.90;;;;;;5038643;28;20071;-68
2021/12/06 08:11:32;;;;;;;;;;;3.20;99.90;;;;;;5056729;28;20096;-68
2021/12/06 08:13:58;;;;;;;25.45;9.60;;;3.30;99.90;;;;;;5038846;28;20361;-69
2021/12/06 08:16:28;;;;;;;22.20;8.47;;;3.30;99.90;;;;;;5039354;28;20021;-68
2021/12/06 08:18:53;;;;;;;25.80;9.60;;;3.40;99.90;;;;;;5056689;28;20021;-69
2021/12/06 08:21:21;;;;;;;25.07;8.73;;;3.30;99.90;;;;;;5056102;28;20074;-68
2021/12/06 08:23:51;;;;;;;28.38;11.38;;;3.30;99.90;;;;;;5056130;28;20396;-68
2021/12/06 08:26:19;;;;;;;34.95;12.88;;;3.40;99.90;;;;;;5056194;28;20112;-68
2021/12/06 08:28:45;;;;;;;26.75;9.95;;;3.40;99.90;;;;;;5056078;28;20111;-68
2021/12/06 08:31:12;;;;;;;33.25;13.13;;;3.40;99.90;;;;;;5056167;28;20020;-68
2021/12/06 08:33:38;;;;;;;31.05;13.65;;;3.50;99.90;;;;;;5056058;28;20074;-68
2021/12/06 08:36:06;;;;;;;26.08;10.77;;;3.50;99.90;;;;;;5055901;28;20017;-68
2021/12/06 08:38:33;;;;;;;21.05;9.15;;;3.50;99.90;;;;;;5055338;28;20093;-68
2021/12/06 08:41:01;;;;;;;20.20;8.60;;;3.50;99.90;;;;;;5055283;28;20493;-68
2021/12/06 08:43:27;;;;;;;22.40;9.90;;;3.60;99.90;;;;;;5037131;28;20033;-68
2021/12/06 08:45:57;;;;;;;21.75;8.90;;;3.60;99.90;;;;;;5055359;28;20390;-68
2021/12/06 08:48:27;;;;;;;24.52;9.45;;;3.70;99.90;;;;;;5055219;28;20054;-68
2021/12/06 08:50:54;;;;;;;23.17;11.23;;;3.60;99.90;;;;;;5054699;28;20033;-68
2021/12/06 08:53:21;;;;;;;23.10;9.52;;;3.60;99.90;;;;;;5055044;28;20028;-68
2021/12/06 08:55:48;;;;;;;20.70;9.73;;;3.60;99.90;;;;;;5054707;28;20021;-68
2021/12/06 08:58:13;;;;;;;17.42;8.23;;;3.70;99.90;;;;;;5036878;28;20059;-68
2021/12/06 09:00:40;;;;;;;16.20;8.35;;;3.80;99.90;;;;;;5036398;28;20067;-68
2021/12/06 09:03:05;;;;;;;14.95;8.70;;;3.80;99.90;;;;;;5055384;28;20033;-69
2021/12/06 09:05:36;;;;;;;16.07;7.47;;;3.90;99.90;;;;;;5054539;28;20170;-69
2021/12/06 09:08:03;;;;;;;17.35;8.30;;;4.10;99.90;;;;;;5055969;28;20403;-69
2021/12/06 09:10:30;;;;;;;16.63;7.82;;;4.20;99.90;;;;;;5036754;28;20056;-69
2021/12/06 09:12:56;;;;;;;16.83;8.38;;;4.20;99.90;;;;;;5054315;28;20079;-69
2021/12/06 09:15:26;;;;;;;13.07;7.00;;;4.30;99.90;;;;;;5054576;28;20087;-68
2021/12/06 09:17:54;;;;;;;17.88;7.13;;;4.30;99.90;;;;;;5054390;28;20033;-69
2021/12/06 09:20:24;;;;;;;15.80;7.80;;;4.20;99.90;;;;;;5054092;28;20047;-68
2021/12/06 09:22:51;;;;;;;15.75;7.07;;;4.10;99.90;;;;;;5054771;28;20108;-68
2021/12/06 09:25:19;;;;;;;18.95;8.32;;;4.20;99.90;;;;;;5036062;28;20028;-68
2021/12/06 09:27:46;;;;;;;21.90;9.55;;;4.20;99.90;;;;;;5054207;28;20103;-68
2021/12/06 09:30:15;;;;;;;20.42;8.68;;;4.20;99.90;;;;;;5053810;28;20017;-68
2021/12/06 09:32:41;;;;;;;29.52;10.70;;;4.20;99.90;;;;;;5053902;28;20025;-68
2021/12/06 09:35:10;;;;;;;23.08;9.93;;;3.90;99.90;;;;;;5035848;28;20474;-68
2021/12/06 09:37:37;;;;;;;20.00;9.32;;;3.80;99.90;;;;;;5053806;28;20057;-68
2021/12/06 09:40:04;;;;;;;25.33;10.98;;;3.90;99.90;;;;;;5035893;28;20032;-67
2021/12/06 09:42:33;;;;;;;24.83;11.60;;;4.10;99.90;;;;;;5054164;28;20074;-68
2021/12/06 09:44:59;;;;;;;27.55;11.35;;;4.30;99.90;;;;;;5036620;28;20039;-68
2021/12/06 09:47:28;;;;;;;25.77;11.38;;;4.20;99.90;;;;;;5053997;28;20473;-68
2021/12/06 09:49:54;;;;;;;28.08;12.38;;;4.20;99.90;;;;;;5053061;28;20028;-68
2021/12/06 09:52:21;;;;;;;29.10;14.10;;;4.20;99.90;;;;;;5053871;28;20079;-67
2021/12/06 09:54:46;;;;;;;24.98;12.55;;;4.20;99.90;;;;;;5053483;28;20029;-67
2021/12/06 09:57:12;;;;;;;26.98;12.30;;;4.20;99.90;;;;;;5053804;28;20104;-67
2021/12/06 09:59:42;;;;;;;30.02;13.13;;;4.10;99.90;;;;;;5054149;28;20450;-68
2021/12/06 10:02:11;;;;;;;28.48;13.50;;;4.10;99.90;;;;;;5036804;28;20025;-68
2021/12/06 10:04:42;;;;;;;28.67;12.43;;;4.20;99.90;;;;;;5054136;28;20393;-68
2021/12/06 10:07:09;;;;;;;21.30;11.05;;;4.20;99.90;;;;;;5053675;28;20021;-68
2021/12/06 10:09:37;;;;;;;24.23;10.93;;;4.30;99.90;;;;;;5053332;28;20569;-67
2021/12/06 10:12:03;;;;;;;21.48;10.50;;;4.30;99.90;;;;;;5053727;28;20028;-67
2021/12/06 10:14:33;;;;;;;21.60;9.75;;;4.30;99.90;;;;;;5053786;28;20029;-68
2021/12/06 10:16:59;;;;;;;19.05;10.52;;;4.30;99.90;;;;;;5053926;28;20501;-68
2021/12/06 10:19:25;;;;;;;21.60;10.97;;;4.30;99.90;;;;;;5053525;28;20056;-68
2021/12/06 10:21:52;;;;;;;;;;;4.30;99.90;;;;;;5053523;28;20037;-68
2021/12/06 10:24:22;;;;;;;18.75;9.73;;;4.30;99.90;;;;;;5053242;28;19905;-67
2021/12/06 10:26:47;;;;;;;20.80;11.30;;;4.50;99.90;;;;;;5035852;28;20365;-67
2021/12/06 10:29:20;;;;;;;20.73;10.80;;;4.60;99.90;;;;;;5052882;28;20025;-67
2021/12/06 10:31:50;;;;;;;23.90;11.25;;;4.60;99.90;;;;;;5034937;28;20028;-68
2021/12/06 10:34:19;;;;;;;18.20;10.77;;;4.60;99.90;;;;;;5052788;28;20118;-69
2021/12/06 10:36:46;;;;;;;16.75;10.68;;;4.60;99.90;;;;;;5053439;28;20033;-68
2021/12/06 10:39:11;;;;;;;19.35;11.10;;;4.80;99.90;;;;;;5052689;28;20503;-68
2021/12/06 10:41:38;;;;;;;18.53;11.33;;;5.10;99.90;;;;;;5052608;28;20057;-68
2021/12/06 10:44:14;;;;;;;20.27;10.75;;;5.40;99.90;;;;;;5052797;28;20060;-68
2021/12/06 10:46:46;;;;;;;17.10;10.10;;;5.60;99.90;;;;;;5052989;28;20504;-68
2021/12/06 10:49:14;;;;;;;17.98;9.98;;;5.50;99.90;;;;;;5052805;28;20464;-68
2021/12/06 10:51:40;;;;;;;17.02;10.02;;;5.60;99.90;;;;;;5052854;28;20477;-68
2021/12/06 10:54:33;;;;;;;23.10;10.47;;;5.80;99.90;;;;;;5036572;28;20031;-68
2021/12/06 10:57:02;;;;;;;17.42;10.70;;;5.80;99.90;;;;;;5035974;28;20049;-69
2021/12/06 10:59:31;;;;;;;18.48;10.57;;;6.10;99.90;;;;;;5052837;28;20018;-68
2021/12/06 11:02:05;;;;;;;16.15;10.18;;;6.00;99.90;;;;;;5055097;28;20049;-68
2021/12/06 11:04:30;;;;;;;15.70;9.73;;;5.90;99.90;;;;;;5057279;28;20385;-69
2021/12/06 11:07:05;;;;;;;17.80;9.97;;;6.00;99.90;;;;;;5057045;28;20055;-69
2021/12/06 11:09:32;;;;;;;16.15;9.38;;;6.10;99.90;;;;;;5056912;28;20017;-70
2021/12/06 11:12:01;;;;;;;18.88;10.27;;;6.00;99.90;;;;;;5056963;28;20017;-68
2021/12/06 11:14:41;;;;;;;15.05;9.70;;;6.00;99.90;;;;;;5056726;28;20028;-69
2021/12/06 11:17:13;;;;;;;18.55;10.35;;;5.80;99.90;;;;;;5057141;28;20055;-69
2021/12/06 11:19:39;;;;;;;15.75;9.93;;;5.70;99.90;;;;;;5038545;28;20116;-68
2021/12/06 11:22:12;;;;;;;17.10;10.00;;;5.70;99.90;;;;;;5056489;28;20123;-68
2021/12/06 11:24:39;;;;;;;17.42;9.43;;;5.60;99.90;;;;;;5038696;28;20029;-69
2021/12/06 11:27:17;;;;;;;16.13;9.57;;;5.40;99.90;;;;;;5056944;28;20029;-68
2021/12/06 11:29:57;;;;;;;18.50;10.05;;;5.30;99.90;;;;;;5056319;28;20390;-69
2021/12/06 11:32:26;;;;;;;15.65;10.65;;;5.30;99.90;;;;;;5039100;28;20021;-69
2021/12/06 11:35:19;;;;;;;18.83;10.45;;;5.30;99.90;;;;;;5056430;28;20024;-68
2021/12/06 11:37:51;;;;;;;18.02;10.27;;;5.30;99.90;;;;;;5056284;28;20380;-68
2021/12/06 11:40:25;;;;;;;19.13;11.10;;;5.40;99.90;;;;;;5037931;28;20111;-68
2021/12/06 11:42:56;;;;;;;16.70;10.38;;;5.30;99.90;;;;;;5056502;28;20032;-69
2021/12/06 11:45:40;;;;;;;18.70;11.13;;;5.30;99.90;;;;;;5038693;28;20074;-68
2021/12/06 11:48:12;;;;;;;22.98;11.07;;;5.30;99.90;;;;;;5057323;28;20040;-68
2021/12/06 11:50:44;;;;;;;17.08;9.85;;;5.30;99.90;;;;;;5056727;28;20215;-68
2021/12/06 11:53:10;;;;;;;16.35;9.15;;;5.30;99.90;;;;;;5038696;28;20020;-68
2021/12/06 11:55:48;;;;;;;18.85;9.38;;;5.30;99.90;;;;;;5056438;28;20120;-68
2021/12/06 11:58:41;;;;;;;15.15;8.70;;;5.30;99.90;;;;;;5056200;28;20029;-68
2021/12/06 12:01:27;;;;;;;20.20;9.25;;;5.30;99.90;;;;;;5056075;28;20027;-69
2021/12/06 12:03:57;;;;;;;16.00;9.60;;;5.30;99.90;;;;;;5038037;28;20025;-69
2021/12/06 12:06:33;;;;;;;14.98;9.10;;;5.30;99.90;;;;;;5037767;28;20021;-69
2021/12/06 12:09:14;;;;;;;15.32;8.88;;;5.30;99.90;;;;;;5055629;28;20082;-69
2021/12/06 12:11:58;;;;;;;12.20;7.68;;;5.40;99.90;;;;;;5055792;28;20406;-69
2021/12/06 12:14:33;;;;;;;13.02;7.43;;;5.50;99.90;;;;;;5055520;28;20028;-69
2021/12/06 12:17:01;;;;;;;16.33;10.23;;;5.50;99.90;;;;;;5055826;28;20053;-69
2021/12/06 12:19:28;;;;;;;10.30;6.95;;;5.50;99.90;;;;;;5055637;28;20485;-69
2021/12/06 12:21:53;;;;;;;15.05;7.45;;;5.50;99.90;;;;;;5055443;28;20155;-69
2021/12/06 12:24:19;;;;;;;11.57;6.20;;;5.60;99.90;;;;;;5056131;28;20482;-69
2021/12/06 12:26:56;;;;;;;7.13;4.83;;;5.50;99.90;;;;;;5055680;28;20033;-69
2021/12/06 12:29:26;;;;;;;8.30;4.55;;;5.40;99.90;;;;;;5055584;28;20029;-68
2021/12/06 12:32:03;;;;;;;11.57;5.45;;;5.40;99.90;;;;;;5037443;28;20033;-68
2021/12/06 12:34:34;;;;;;;9.77;5.60;;;5.50;99.90;;;;;;5055644;28;20029;-68
2021/12/06 12:37:01;;;;;;;8.82;5.15;;;5.50;99.90;;;;;;5054924;28;20021;-69
2021/12/06 12:39:27;;;;;;;;;;;5.70;99.90;;;;;;5037723;28;20385;-68
2021/12/06 12:42:00;;;;;;;11.77;4.85;;;5.70;99.90;;;;;;5037090;28;19951;-68
2021/12/06 12:44:51;;;;;;;8.30;5.35;;;5.70;99.90;;;;;;5054706;28;20029;-68
2021/12/06 12:47:26;;;;;;;8.82;5.20;;;5.80;99.90;;;;;;5037384;28;20591;-69
2021/12/06 12:50:00;;;;;;;9.82;5.10;;;5.80;99.90;;;;;;5054817;28;20029;-69
2021/12/06 12:52:45;;;;;;;8.23;5.38;;;5.90;99.90;;;;;;5055249;28;20040;-69
2021/12/06 12:55:30;;;;;;;8.65;4.70;;;5.90;99.90;;;;;;5054945;28;20104;-69
2021/12/06 12:58:05;;;;;;;8.07;4.47;;;5.80;99.90;;;;;;5056499;28;20024;-68
2021/12/06 13:00:31;;;;;;;9.25;4.78;;;5.70;99.90;;;;;;5039730;28;20425;-68
2021/12/06 13:02:57;;;;;;;;;;;5.60;99.90;;;;;;5058287;28;20017;-68
2021/12/06 13:05:29;;;;;;;6.60;4.15;;;5.60;99.90;;;;;;5037893;28;19909;-68
2021/12/06 13:07:58;;;;;;;7.93;4.70;;;5.60;99.90;;;;;;5055971;28;20100;-68